Irtyshsk, Kazakhstan
Current Conditions -  °F | °C
As of 3:30 AM on Saturday 29 Nov 2014 (Local Time) from UNOO Reporting Station
Broken Clouds Broken Clouds  
Wind Chill: -27°   Ceiling: 20000
Heat Index: -15°   Visibility: 4mi
Dew Point: -20°   Wind: 4mph
Humidity: 77%   Direction: 160°SSE
Pressure: 30.74"   Gusts: NA
Location:  53.33°N, 75.46°E
Report Text: UNOO 282130Z 16002MPS 6000 BKN200 M26/M29 Q1041 25810550 NOSIGRMK QFE772
Loading
Personal Weather Stations






























Interactive Weather Map New forecast layout! Learn more

10-Day Weather Forecast

Advertisements
Track Severe Weather on mobile